Time;durP1;ratioP1;P1;durP2;ratioP2;P2;SDS_P1;SDS_P2;PMS_P1;PMS_P2;Temp;Humidity;BMP_temperature;BMP_pressure;BME280_temperature;BME280_humidity;BME280_pressure;Samples;Min_cycle;Max_cycle;Signal;HPM_P1;HPM_P2
2022/02/21 00:00:21;;;;;;;;;;;;;;;;;;5047317;28;19936;-57
2022/02/21 00:02:46;;;;;;;;;;;;;;;;;;5045893;28;20737;-56
2022/02/21 00:05:12;;;;;;;;;;;;;;;;;;5029393;28;19928;-57
2022/02/21 00:07:37;;;;;;;;;;;;;;;;;;5044392;28;20008;-58
2022/02/21 00:10:02;;;;;;;;;;;;;;;;;;5046920;28;20374;-55
2022/02/21 00:12:28;;;;;;;;;;;;;;;;;;5045364;28;19986;-56
2022/02/21 00:14:53;;;;;;;;;;;;;;;;;;5047129;28;19920;-57
2022/02/21 00:17:19;;;;;;;;;;;;;;;;;;5043276;28;19951;-57
2022/02/21 00:19:44;;;;;;;;;;;;;;;;;;5047615;28;20000;-57
2022/02/21 00:22:10;;;;;;;;;;;;;;;;;;5027825;28;19932;-57
2022/02/21 00:24:35;;;;;;;;;;;;;;;;;;5027538;28;20500;-57
2022/02/21 00:27:01;;;;;;;;;;;;;;;;;;5044712;28;19925;-56
2022/02/21 00:29:26;;;;;;;;;;;;;;;;;;5045773;28;20441;-56
2022/02/21 00:31:51;;;;;;;;;;;;;;;;;;5045680;28;19927;-57
2022/02/21 00:34:17;;;;;;;;;;;;;;;;;;5045607;28;20349;-55
2022/02/21 00:36:42;;;;;;;;;;;;;;;;;;5043538;28;20456;-57
2022/02/21 00:39:08;;;;;;;;;;;;;;;;;;5046364;28;20042;-57
2022/02/21 00:41:33;;;;;;;;;;;;;;;;;;5046094;28;19944;-58
2022/02/21 00:43:59;;;;;;;;;;;;;;;;;;5047087;28;19964;-56
2022/02/21 00:46:24;;;;;;;;;;;;;;;;;;5045126;28;19960;-57
2022/02/21 00:48:50;;;;;;;;;;;;;;;;;;5047490;28;20056;-58
2022/02/21 00:51:15;;;;;;;;;;;;;;;;;;5045526;28;19924;-57
2022/02/21 00:53:41;;;;;;;;;;;;;;;;;;5044443;28;19966;-57
2022/02/21 00:56:06;;;;;;;;;;;;;;;;;;5042675;28;19924;-58
2022/02/21 00:58:32;;;;;;;;;;;;;;;;;;5042556;28;19924;-59
2022/02/21 01:00:57;;;;;;;;;;;;;;;;;;5045898;28;19978;-54
2022/02/21 01:03:23;;;;;;;;;;;;;;;;;;5045055;28;19972;-57
2022/02/21 01:05:48;;;;;;;;;;;;;;;;;;5045576;28;19924;-57
2022/02/21 01:08:14;;;;;;;;;;;;;;;;;;5027715;28;20495;-57
2022/02/21 01:10:39;;;;;;;;;;;;;;;;;;5027531;28;19927;-54
2022/02/21 01:13:05;;;;;;;;;;;;;;;;;;5046474;28;19963;-58
2022/02/21 01:15:30;;;;;;;;;;;;;;;;;;5045759;28;19933;-57
2022/02/21 01:17:55;;;;;;;;;;;;;;;;;;5045591;28;20003;-56
2022/02/21 01:20:21;;;;;;;;;;;;;;;;;;5044950;28;20398;-57
2022/02/21 01:22:46;;;;;;;;;;;;;;;;;;5046587;28;20257;-59
2022/02/21 01:25:12;;;;;;;;;;;;;;;;;;5047060;28;19929;-55
2022/02/21 01:27:37;;;;;;;;;;;;;;;;;;5044639;28;19964;-57
2022/02/21 01:30:03;;;;;;;;;;;;;;;;;;5046601;28;19950;-57
2022/02/21 01:32:28;;;;;;;;;;;;;;;;;;5045998;28;19924;-58
2022/02/21 01:34:54;;;;;;;;;;;;;;;;;;5045346;28;19921;-56
2022/02/21 01:37:19;;;;;;;;;;;;;;;;;;5043470;28;19924;-58
2022/02/21 01:39:44;;;;;;;;;;;;;;;;;;5046876;28;19960;-57
2022/02/21 01:42:10;;;;;;;;;;;;;;;;;;5045842;28;19948;-57
2022/02/21 01:44:36;;;;;;;;;;;;;;;;;;5043600;28;19943;-56
2022/02/21 01:47:01;;;;;;;;;;;;;;;;;;5044114;28;19921;-57
2022/02/21 01:49:27;;;;;;;;;;;;;;;;;;5044204;28;19921;-56
2022/02/21 01:51:52;;;;;;;;;;;;;;;;;;5046027;28;19920;-52
2022/02/21 01:54:18;;;;;;;;;;;;;;;;;;5045225;28;19932;-56
2022/02/21 01:56:43;;;;;;;;;;;;;;;;;;5024173;28;19959;-55
2022/02/21 01:59:09;;;;;;;;;;;;;;;;;;5045844;28;19932;-58
2022/02/21 02:01:34;;;;;;;;;;;;;;;;;;5045757;28;19946;-54
2022/02/21 02:04:00;;;;;;;;;;;;;;;;;;5045450;28;19978;-54
2022/02/21 02:06:25;;;;;;;;;;;;;;;;;;5043211;28;19924;-54
2022/02/21 02:08:51;;;;;;;;;;;;;;;;;;5047022;28;20653;-56
2022/02/21 02:11:16;;;;;;;;;;;;;;;;;;5048637;28;19920;-58
2022/02/21 02:13:42;;;;;;;;;;;;;;;;;;5030605;28;20003;-55
2022/02/21 02:16:07;;;;;;;;;;;;;;;;;;5049088;28;19924;-56
2022/02/21 02:18:32;;;;;;;;;;;;;;;;;;5048952;28;19960;-56
2022/02/21 02:20:58;;;;;;;;;;;;;;;;;;5050022;28;19925;-55
2022/02/21 02:23:23;;;;;;;;;;;;;;;;;;5048038;28;19929;-55
2022/02/21 02:25:49;;;;;;;;;;;;;;;;;;5049887;28;19932;-58
2022/02/21 02:28:14;;;;;;;;;;;;;;;;;;5047593;28;19921;-57
2022/02/21 02:30:40;;;;;;;;;;;;;;;;;;5047602;28;19933;-55
2022/02/21 02:33:05;;;;;;;;;;;;;;;;;;5049484;28;20296;-56
2022/02/21 02:35:32;;;;;;;;;;;;;;;;;;5046937;28;20038;-55
2022/02/21 02:37:58;;;;;;;;;;;;;;;;;;5046709;28;19969;-55
2022/02/21 02:40:23;;;;;;;;;;;;;;;;;;5049456;28;20347;-52
2022/02/21 02:42:49;;;;;;;;;;;;;;;;;;5048907;28;19920;-55
2022/02/21 02:45:14;;;;;;;;;;;;;;;;;;5049547;28;19925;-57
2022/02/21 02:47:40;;;;;;;;;;;;;;;;;;5050041;28;20106;-54
2022/02/21 02:50:05;;;;;;;;;;;;;;;;;;5056727;28;19944;-57
2022/02/21 02:52:31;;;;;;;;;;;;;;;;;;5056208;28;19921;-57
2022/02/21 02:54:56;;;;;;;;;;;;;;;;;;5052014;28;19951;-57
2022/02/21 02:57:21;;;;;;;;;;;;;;;;;;5046333;28;19985;-56
2022/02/21 02:59:47;;;;;;;;;;;;;;;;;;5047575;28;19931;-55
2022/02/21 03:02:12;;;;;;;;;;;;;;;;;;5048073;28;19925;-57
2022/02/21 03:04:38;;;;;;;;;;;;;;;;;;5047223;28;20088;-56
2022/02/21 03:07:03;;;;;;;;;;;;;;;;;;5045907;28;19925;-56
2022/02/21 03:09:29;;;;;;;;;;;;;;;;;;5047751;28;19931;-55
2022/02/21 03:11:54;;;;;;;;;;;;;;;;;;5048940;28;19928;-58
2022/02/21 03:14:20;;;;;;;;;;;;;;;;;;5047293;28;19971;-53
2022/02/21 03:16:45;;;;;;;;;;;;;;;;;;5046570;28;19959;-56
2022/02/21 03:19:10;;;;;;;;;;;;;;;;;;5048662;28;19928;-55
2022/02/21 03:21:36;;;;;;;;;;;;;;;;;;5027455;28;20277;-56
2022/02/21 03:24:01;;;;;;;;;;;;;;;;;;5049464;28;19932;-58
2022/02/21 03:26:27;;;;;;;;;;;;;;;;;;5044696;28;20357;-55
2022/02/21 03:28:52;;;;;;;;;;;;;;;;;;5047370;28;20458;-55
2022/02/21 03:31:18;;;;;;;;;;;;;;;;;;5048833;28;19920;-55
2022/02/21 03:33:46;;;;;;;;;;;;;;;;;;5031389;28;20148;-58
2022/02/21 03:36:11;;;;;;;;;;;;;;;;;;5064145;28;19992;-56
2022/02/21 03:38:37;;;;;;;;;;;;;;;;;;5049726;28;19925;-56
2022/02/21 03:41:02;;;;;;;;;;;;;;;;;;5050426;28;20511;-55
2022/02/21 03:43:28;;;;;;;;;;;;;;;;;;5040089;28;20379;-57
2022/02/21 03:45:53;;;;;;;;;;;;;;;;;;5049644;28;19936;-56
2022/02/21 03:48:19;;;;;;;;;;;;;;;;;;5048006;28;19921;-56
2022/02/21 03:50:44;;;;;;;;;;;;;;;;;;5049815;28;19952;-57
2022/02/21 03:53:10;;;;;;;;;;;;;;;;;;5049186;28;19916;-55
2022/02/21 03:55:35;;;;;;;;;;;;;;;;;;5046597;28;19924;-56
2022/02/21 03:58:00;;;;;;;;;;;;;;;;;;5048608;28;19924;-57
2022/02/21 04:00:28;;;;;;;;;;;;;;;;;;5046326;28;19920;-53
2022/02/21 04:02:54;;;;;;;;;;;;;;;;;;5047644;28;20251;-55
2022/02/21 04:05:19;;;;;;;;;;;;;;;;;;5045069;28;19980;-56
2022/02/21 04:07:45;;;;;;;;;;;;;;;;;;5045708;28;19925;-56
2022/02/21 04:10:10;;;;;;;;;;;;;;;;;;5048601;28;20433;-56
2022/02/21 04:12:36;;;;;;;;;;;;;;;;;;5045106;28;19943;-54
2022/02/21 04:15:02;;;;;;;;;;;;;;;;;;5027269;28;19974;-55
2022/02/21 04:17:27;;;;;;;;;;;;;;;;;;5044318;28;19925;-56
2022/02/21 04:19:53;;;;;;;;;;;;;;;;;;5046346;28;19921;-54
2022/02/21 04:22:18;;;;;;;;;;;;;;;;;;5042719;28;19994;-55
2022/02/21 04:24:43;;;;;;;;;;;;;;;;;;5045759;28;20467;-56
2022/02/21 04:27:09;;;;;;;;;;;;;;;;;;5046422;28;20017;-57
2022/02/21 04:29:34;;;;;;;;;;;;;;;;;;5044155;28;20015;-56
2022/02/21 04:32:00;;;;;;;;;;;;;;;;;;5046231;28;19927;-57
2022/02/21 04:34:25;;;;;;;;;;;;;;;;;;5045169;28;19921;-57
2022/02/21 04:36:51;;;;;;;;;;;;;;;;;;5043372;28;19936;-56
2022/02/21 04:39:16;;;;;;;;;;;;;;;;;;5026910;28;19948;-56
2022/02/21 04:41:42;;;;;;;;;;;;;;;;;;5046138;28;19931;-57
2022/02/21 04:44:07;;;;;;;;;;;;;;;;;;5046769;28;19948;-56
2022/02/21 04:46:33;;;;;;;;;;;;;;;;;;5026883;28;20020;-54
2022/02/21 04:48:58;;;;;;;;;;;;;;;;;;5044007;28;19939;-54
2022/02/21 04:51:24;;;;;;;;;;;;;;;;;;5045919;28;20012;-57
2022/02/21 04:53:50;;;;;;;;;;;;;;;;;;5046380;28;19970;-54
2022/02/21 04:56:15;;;;;;;;;;;;;;;;;;5045912;28;19920;-55
2022/02/21 04:58:41;;;;;;;;;;;;;;;;;;5045047;28;19921;-55
2022/02/21 05:01:06;;;;;;;;;;;;;;;;;;5047943;28;19964;-55
2022/02/21 05:03:32;;;;;;;;;;;;;;;;;;5049056;28;19929;-56
2022/02/21 05:05:57;;;;;;;;;;;;;;;;;;5041468;28;19956;-56
2022/02/21 05:08:23;;;;;;;;;;;;;;;;;;5054732;28;19974;-56
2022/02/21 05:10:48;;;;;;;;;;;;;;;;;;5048014;28;19933;-54
2022/02/21 05:13:14;;;;;;;;;;;;;;;;;;5046399;28;19963;-56
2022/02/21 05:15:39;;;;;;;;;;;;;;;;;;5045962;28;19994;-57
2022/02/21 05:18:05;;;;;;;;;;;;;;;;;;5043964;28;19921;-54
2022/02/21 05:20:30;;;;;;;;;;;;;;;;;;5044914;28;20027;-53
2022/02/21 05:22:56;;;;;;;;;;;;;;;;;;5045572;28;19921;-53
2022/02/21 05:25:21;;;;;;;;;;;;;;;;;;5025377;28;19940;-54
2022/02/21 05:27:47;;;;;;;;;;;;;;;;;;5042580;28;20023;-54
2022/02/21 05:30:13;;;;;;;;;;;;;;;;;;5045075;28;20003;-55
2022/02/21 05:32:38;;;;;;;;;;;;;;;;;;5047147;28;20510;-57
2022/02/21 05:35:04;;;;;;;;;;;;;;;;;;5046354;28;20002;-55
2022/02/21 05:37:29;;;;;;;;;;;;;;;;;;5044328;28;19944;-57
2022/02/21 05:39:55;;;;;;;;;;;;;;;;;;5045192;28;19928;-56
2022/02/21 05:42:20;;;;;;;;;;;;;;;;;;5027361;28;20011;-57
2022/02/21 05:44:46;;;;;;;;;;;;;;;;;;5028498;28;19948;-53
2022/02/21 05:47:11;;;;;;;;;;;;;;;;;;5031254;28;19952;-57
2022/02/21 05:49:37;;;;;;;;;;;;;;;;;;5048239;28;19966;-54
2022/02/21 05:52:03;;;;;;;;;;;;;;;;;;5049095;28;20313;-54
2022/02/21 05:54:28;;;;;;;;;;;;;;;;;;5049390;28;20365;-56
2022/02/21 05:56:55;;;;;;;;;;;;;;;;;;5045728;28;19925;-55
2022/02/21 05:59:20;;;;;;;;;;;;;;;;;;5030980;28;20525;-56
2022/02/21 06:01:46;;;;;;;;;;;;;;;;;;5047860;28;19921;-53
2022/02/21 06:04:11;;;;;;;;;;;;;;;;;;5049312;28;19939;-54
2022/02/21 06:06:37;;;;;;;;;;;;;;;;;;5048014;28;19936;-56
2022/02/21 06:09:03;;;;;;;;;;;;;;;;;;5047541;28;19971;-56
2022/02/21 06:11:28;;;;;;;;;;;;;;;;;;5046787;28;19924;-53
2022/02/21 06:13:54;;;;;;;;;;;;;;;;;;5050191;28;20725;-54
2022/02/21 06:16:20;;;;;;;;;;;;;;;;;;5028535;28;19975;-53
2022/02/21 06:18:45;;;;;;;;;;;;;;;;;;5047007;28;20015;-55
2022/02/21 06:21:11;;;;;;;;;;;;;;;;;;5048111;28;19936;-54
2022/02/21 06:23:36;;;;;;;;;;;;;;;;;;5046992;28;19964;-55
2022/02/21 06:26:02;;;;;;;;;;;;;;;;;;5048080;28;19933;-54
2022/02/21 06:28:28;;;;;;;;;;;;;;;;;;5046794;28;19927;-56
2022/02/21 06:30:54;;;;;;;;;;;;;;;;;;5031143;28;19931;-56
2022/02/21 06:33:19;;;;;;;;;;;;;;;;;;5046638;28;19928;-56
2022/02/21 06:35:45;;;;;;;;;;;;;;;;;;5047708;28;20511;-57
2022/02/21 06:38:10;;;;;;;;;;;;;;;;;;5047673;28;19920;-52
2022/02/21 06:40:36;;;;;;;;;;;;;;;;;;5045732;28;19921;-56
2022/02/21 06:43:02;;;;;;;;;;;;;;;;;;5045147;28;19924;-55
2022/02/21 06:45:27;;;;;;;;;;;;;;;;;;5045837;28;19966;-57
2022/02/21 06:47:53;;;;;;;;;;;;;;;;;;5047391;28;20046;-54
2022/02/21 06:50:18;;;;;;;;;;;;;;;;;;5044693;28;19931;-55
2022/02/21 06:52:44;;;;;;;;;;;;;;;;;;5046734;28;19944;-54
2022/02/21 06:55:12;;;;;;;;;;;;;;;;;;5045587;28;20034;-56
2022/02/21 06:57:40;;;;;;;;;;;;;;;;;;5045375;28;19940;-54
2022/02/21 07:00:06;;;;;;;;;;;;;;;;;;5022453;28;19921;-55
2022/02/21 07:02:31;;;;;;;;;;;;;;;;;;5047778;28;20258;-53
2022/02/21 07:04:57;;;;;;;;;;;;;;;;;;5048837;28;19928;-54
2022/02/21 07:07:22;;;;;;;;;;;;;;;;;;5045020;28;19921;-53
2022/02/21 07:09:48;;;;;;;;;;;;;;;;;;5047537;28;19920;-55
2022/02/21 07:12:13;;;;;;;;;;;;;;;;;;5047720;28;19964;-52
2022/02/21 07:14:39;;;;;;;;;;;;;;;;;;5047021;28;20757;-54
2022/02/21 07:17:04;;;;;;;;;;;;;;;;;;5045725;28;19932;-52
2022/02/21 07:19:30;;;;;;;;;;;;;;;;;;5047134;28;19924;-55
2022/02/21 07:21:55;;;;;;;;;;;;;;;;;;5048037;28;19931;-52
2022/02/21 07:24:21;;;;;;;;;;;;;;;;;;5046317;28;20301;-54
2022/02/21 07:26:46;;;;;;;;;;;;;;;;;;5049428;28;20011;-54
2022/02/21 07:29:11;;;;;;;;;;;;;;;;;;5049641;28;19925;-56
2022/02/21 07:31:37;;;;;;;;;;;;;;;;;;5048788;28;19924;-53
2022/02/21 07:34:03;;;;;;;;;;;;;;;;;;5049583;28;20737;-52
2022/02/21 07:36:29;;;;;;;;;;;;;;;;;;5046346;28;19943;-53
2022/02/21 07:38:54;;;;;;;;;;;;;;;;;;5047555;28;19921;-52
2022/02/21 07:41:20;;;;;;;;;;;;;;;;;;5047509;28;19996;-53
2022/02/21 07:43:45;;;;;;;;;;;;;;;;;;5048354;28;19952;-54
2022/02/21 07:46:11;;;;;;;;;;;;;;;;;;5028431;28;20716;-52
2022/02/21 07:48:36;;;;;;;;;;;;;;;;;;5025968;28;19967;-55
2022/02/21 07:51:02;;;;;;;;;;;;;;;;;;5029166;28;20355;-53
2022/02/21 07:53:27;;;;;;;;;;;;;;;;;;5046295;28;19924;-53
2022/02/21 07:55:53;;;;;;;;;;;;;;;;;;5026643;28;19966;-54
2022/02/21 07:58:18;;;;;;;;;;;;;;;;;;5046971;28;19925;-52
2022/02/21 08:00:44;;;;;;;;;;;;;;;;;;5047048;28;19966;-55
2022/02/21 08:03:09;;;;;;;;;;;;;;;;;;5047092;28;19925;-55
2022/02/21 08:05:36;;;;;;;;;;;;;;;;;;5047056;28;19958;-55
2022/02/21 08:08:01;;;;;;;;;;;;;;;;;;5044941;28;20516;-54
2022/02/21 08:10:26;;;;;;;;;;;;;;;;;;5047296;28;19924;-56
2022/02/21 08:12:52;;;;;;;;;;;;;;;;;;5027648;28;20011;-57
2022/02/21 08:15:17;;;;;;;;;;;;;;;;;;5047891;28;19921;-57
2022/02/21 08:17:43;;;;;;;;;;;;;;;;;;5048128;28;19998;-56
2022/02/21 08:20:08;;;;;;;;;;;;;;;;;;5051234;28;19927;-55
2022/02/21 08:22:34;;;;;;;;;;;;;;;;;;5058063;28;19931;-56
2022/02/21 08:24:59;;;;;;;;;;;;;;;;;;5061604;28;19929;-55
2022/02/21 08:27:25;;;;;;;;;;;;;;;;;;5050216;28;19989;-53
2022/02/21 08:29:50;;;;;;;;;;;;;;;;;;5047197;28;19921;-56
2022/02/21 08:32:18;;;;;;;;;;;;;;;;;;5044482;28;19920;-53
2022/02/21 08:34:44;;;;;;;;;;;;;;;;;;5046320;28;20346;-53
2022/02/21 08:37:09;;;;;;;;;;;;;;;;;;5043686;28;19927;-53
2022/02/21 08:39:35;;;;;;;;;;;;;;;;;;5045402;28;19925;-56
2022/02/21 08:42:00;;;;;;;;;;;;;;;;;;5046274;28;19924;-56
2022/02/21 08:44:27;;;;;;;;;;;;;;;;;;5045049;28;20395;-53
2022/02/21 08:46:52;;;;;;;;;;;;;;;;;;5044828;28;19935;-56
2022/02/21 08:49:18;;;;;;;;;;;;;;;;;;5046507;28;19925;-53
2022/02/21 08:51:43;;;;;;;;;;;;;;;;;;5044689;28;19928;-56
2022/02/21 08:54:11;;;;;;;;;;;;;;;;;;5046235;28;19956;-54
2022/02/21 08:56:37;;;;;;;;;;;;;;;;;;5024266;28;19999;-54
2022/02/21 08:59:02;;;;;;;;;;;;;;;;;;5025727;28;20587;-55
2022/02/21 09:01:28;;;;;;;;;;;;;;;;;;5023470;28;19925;-56
2022/02/21 09:03:53;;;;;;;;;;;;;;;;;;5025859;28;19929;-54
2022/02/21 09:06:19;;;;;;;;;;;;;;;;;;5025523;28;19925;-56
2022/02/21 09:08:44;;;;;;;;;;;;;;;;;;5024280;28;19921;-52
2022/02/21 09:11:10;;;;;;;;;;;;;;;;;;5025845;28;19932;-55
2022/02/21 09:13:36;;;;;;;;;;;;;;;;;;5026328;28;20420;-53
2022/02/21 09:16:01;;;;;;;;;;;;;;;;;;5025330;28;19929;-52
2022/02/21 09:18:26;;;;;;;;;;;;;;;;;;5024575;28;19936;-53
2022/02/21 09:20:53;;;;;;;;;;;;;;;;;;5029667;28;20356;-55
2022/02/21 09:23:19;;;;;;;;;;;;;;;;;;5029124;28;19967;-56
2022/02/21 09:25:44;;;;;;;;;;;;;;;;;;5028581;28;20012;-56
2022/02/21 09:28:09;;;;;;;;;;;;;;;;;;5028979;28;20150;-54
2022/02/21 09:30:35;;;;;;;;;;;;;;;;;;5028984;28;19926;-55
2022/02/21 09:33:01;;;;;;;;;;;;;;;;;;5029555;28;20495;-53
2022/02/21 09:35:26;;;;;;;;;;;;;;;;;;5028603;28;20596;-54
2022/02/21 09:37:52;;;;;;;;;;;;;;;;;;5030106;28;19932;-54
2022/02/21 09:40:17;;;;;;;;;;;;;;;;;;5030357;28;20405;-55
2022/02/21 09:42:43;;;;;;;;;;;;;;;;;;5029486;28;20023;-54
2022/02/21 09:45:08;;;;;;;;;;;;;;;;;;5029117;28;20332;-55
2022/02/21 09:47:34;;;;;;;;;;;;;;;;;;5027784;28;19921;-54
2022/02/21 09:49:59;;;;;;;;;;;;;;;;;;5029922;28;19932;-56
2022/02/21 09:52:25;;;;;;;;;;;;;;;;;;5026731;28;20390;-53
2022/02/21 09:54:50;;;;;;;;;;;;;;;;;;5029310;28;20042;-55
2022/02/21 09:57:15;;;;;;;;;;;;;;;;;;5028903;28;19921;-54
2022/02/21 09:59:41;;;;;;;;;;;;;;;;;;5028508;28;19928;-56
2022/02/21 10:02:06;;;;;;;;;;;;;;;;;;5029536;28;19925;-54
2022/02/21 10:04:32;;;;;;;;;;;;;;;;;;5028194;28;19933;-55
2022/02/21 10:06:57;;;;;;;;;;;;;;;;;;5028545;28;19925;-54
2022/02/21 10:09:23;;;;;;;;;;;;;;;;;;5027580;28;19923;-56
2022/02/21 10:11:48;;;;;;;;;;;;;;;;;;5029725;28;19939;-56
2022/02/21 10:14:14;;;;;;;;;;;;;;;;;;5028378;28;19949;-53
2022/02/21 10:16:39;;;;;;;;;;;;;;;;;;5028033;28;19924;-56
2022/02/21 10:19:05;;;;;;;;;;;;;;;;;;5028640;28;19948;-56
2022/02/21 10:21:30;;;;;;;;;;;;;;;;;;5027710;28;20349;-57
2022/02/21 10:23:57;;;;;;;;;;;;;;;;;;5029020;28;19943;-56
2022/02/21 10:26:22;;;;;;;;;;;;;;;;;;5026994;28;19933;-56
2022/02/21 10:28:48;;;;;;;;;;;;;;;;;;5028595;28;20487;-53
2022/02/21 10:31:13;;;;;;;;;;;;;;;;;;5028266;28;20505;-54
2022/02/21 10:33:39;;;;;;;;;;;;;;;;;;5027918;28;19932;-55
2022/02/21 10:36:04;;;;;;;;;;;;;;;;;;5028049;28;19921;-54
2022/02/21 10:38:30;;;;;;;;;;;;;;;;;;5028043;28;19924;-54
2022/02/21 10:40:55;;;;;;;;;;;;;;;;;;5029380;28;20373;-53
2022/02/21 10:43:26;;;;;;;;;;;;;;;;;;5027446;28;19925;-54
2022/02/21 10:45:51;;;;;;;;;;;;;;;;;;5026157;28;19956;-55
2022/02/21 10:48:17;;;;;;;;;;;;;;;;;;5028908;28;20016;-55
2022/02/21 10:50:42;;;;;;;;;;;;;;;;;;5027870;28;20224;-56
2022/02/21 10:53:08;;;;;;;;;;;;;;;;;;5028516;28;19921;-53
2022/02/21 10:55:33;;;;;;;;;;;;;;;;;;5026955;28;19981;-56
2022/02/21 10:57:59;;;;;;;;;;;;;;;;;;5028038;28;20458;-56
2022/02/21 11:00:24;;;;;;;;;;;;;;;;;;5027960;28;19925;-55
2022/02/21 11:02:50;;;;;;;;;;;;;;;;;;5032714;28;19952;-55
2022/02/21 11:05:15;;;;;;;;;;;;;;;;;;5027248;28;19980;-56
2022/02/21 11:07:45;;;;;;;;;;;;;;;;;;5028784;28;19925;-56
2022/02/21 11:10:10;;;;;;;;;;;;;;;;;;5030286;28;20410;-54
2022/02/21 11:12:37;;;;;;;;;;;;;;;;;;5027897;28;20019;-55
2022/02/21 11:15:03;;;;;;;;;;;;;;;;;;5027711;28;19927;-54
2022/02/21 11:17:28;;;;;;;;;;;;;;;;;;5026920;28;20401;-54
2022/02/21 11:19:53;;;;;;;;;;;;;;;;;;5030223;28;19952;-55
2022/02/21 11:22:19;;;;;;;;;;;;;;;;;;5025060;28;20627;-54
2022/02/21 11:24:44;;;;;;;;;;;;;;;;;;5027551;28;20368;-55
2022/02/21 11:27:10;;;;;;;;;;;;;;;;;;5025774;28;20721;-54
2022/02/21 11:29:35;;;;;;;;;;;;;;;;;;5027476;28;19916;-54
2022/02/21 11:32:01;;;;;;;;;;;;;;;;;;5029072;28;19925;-53
2022/02/21 11:34:26;;;;;;;;;;;;;;;;;;5026585;28;19970;-56
2022/02/21 11:36:57;;;;;;;;;;;;;;;;;;5027513;28;19931;-54
2022/02/21 11:39:24;;;;;;;;;;;;;;;;;;5027896;28;20428;-55
2022/02/21 11:41:50;;;;;;;;;;;;;;;;;;5028192;28;20551;-54
2022/02/21 11:44:15;;;;;;;;;;;;;;;;;;5027207;28;19933;-55
2022/02/21 11:46:40;;;;;;;;;;;;;;;;;;5026550;28;19956;-55
2022/02/21 11:49:07;;;;;;;;;;;;;;;;;;5027879;28;19956;-55
2022/02/21 11:51:32;;;;;;;;;;;;;;;;;;5027606;28;19925;-56
2022/02/21 11:53:58;;;;;;;;;;;;;;;;;;5029077;28;20285;-51
2022/02/21 11:56:23;;;;;;;;;;;;;;;;;;5027823;28;19928;-57
2022/02/21 11:58:48;;;;;;;;;;;;;;;;;;5029443;28;19932;-56
2022/02/21 12:01:14;;;;;;;;;;;;;;;;;;5036622;28;19921;-56
2022/02/21 12:03:40;;;;;;;;;;;;;;;;;;5041450;28;19945;-55
2022/02/21 12:06:05;;;;;;;;;;;;;;;;;;5032640;28;20408;-53
2022/02/21 12:08:31;;;;;;;;;;;;;;;;;;5026171;28;19924;-55
2022/02/21 12:10:56;;;;;;;;;;;;;;;;;;5027724;28;20396;-55
2022/02/21 12:13:22;;;;;;;;;;;;;;;;;;5025974;28;19975;-54
2022/02/21 12:15:48;;;;;;;;;;;;;;;;;;5023903;28;19920;-53
2022/02/21 12:18:13;;;;;;;;;;;;;;;;;;5025782;28;19929;-56
2022/02/21 12:20:39;;;;;;;;;;;;;;;;;;5025984;28;19928;-55
2022/02/21 12:23:04;;;;;;;;;;;;;;;;;;5026637;28;19936;-53
2022/02/21 12:25:29;;;;;;;;;;;;;;;;;;5025244;28;19973;-52
2022/02/21 12:27:55;;;;;;;;;;;;;;;;;;5024972;28;19929;-55
2022/02/21 12:30:20;;;;;;;;;;;;;;;;;;5024143;28;19921;-55
2022/02/21 12:32:46;;;;;;;;;;;;;;;;;;5024456;28;20002;-55
2022/02/21 12:35:11;;;;;;;;;;;;;;;;;;5027903;28;19925;-56
2022/02/21 12:37:37;;;;;;;;;;;;;;;;;;5025730;28;20505;-56
2022/02/21 12:40:02;;;;;;;;;;;;;;;;;;5025891;28;19982;-56
2022/02/21 12:42:28;;;;;;;;;;;;;;;;;;5027181;28;19925;-54
2022/02/21 12:44:53;;;;;;;;;;;;;;;;;;5026293;28;19933;-54
2022/02/21 12:47:19;;;;;;;;;;;;;;;;;;5025615;28;19937;-53
2022/02/21 12:49:44;;;;;;;;;;;;;;;;;;5027107;28;19929;-54
2022/02/21 12:52:10;;;;;;;;;;;;;;;;;;5023589;28;19928;-51
2022/02/21 12:54:35;;;;;;;;;;;;;;;;;;5024456;28;20002;-51
2022/02/21 12:57:02;;;;;;;;;;;;;;;;;;5024751;28;19924;-54
2022/02/21 12:59:27;;;;;;;;;;;;;;;;;;5025339;28;19928;-52
2022/02/21 13:01:53;;;;;;;;;;;;;;;;;;5026002;28;19920;-52
2022/02/21 13:04:18;;;;;;;;;;;;;;;;;;5024383;28;19937;-55
2022/02/21 13:06:44;;;;;;;;;;;;;;;;;;5026691;28;19921;-56
2022/02/21 13:09:09;;;;;;;;;;;;;;;;;;5025556;28;21706;-55
2022/02/21 13:11:35;;;;;;;;;;;;;;;;;;5024757;28;19921;-56
2022/02/21 13:14:01;;;;;;;;;;;;;;;;;;5026923;28;20024;-56
2022/02/21 13:16:26;;;;;;;;;;;;;;;;;;5026165;28;20841;-55
2022/02/21 13:18:52;;;;;;;;;;;;;;;;;;5028669;28;20055;-56
2022/02/21 13:21:17;;;;;;;;;;;;;;;;;;5026949;28;19925;-57
2022/02/21 13:23:43;;;;;;;;;;;;;;;;;;5024877;28;19933;-55
2022/02/21 13:26:08;;;;;;;;;;;;;;;;;;5026545;28;19933;-54
2022/02/21 13:28:34;;;;;;;;;;;;;;;;;;5024671;28;19921;-56
2022/02/21 13:30:59;;;;;;;;;;;;;;;;;;5026800;28;19926;-55
2022/02/21 13:33:25;;;;;;;;;;;;;;;;;;5024924;28;20771;-54
2022/02/21 13:35:50;;;;;;;;;;;;;;;;;;5028566;28;20326;-52
2022/02/21 13:38:16;;;;;;;;;;;;;;;;;;5026847;28;19927;-54
2022/02/21 13:40:41;;;;;;;;;;;;;;;;;;5026480;28;19965;-51
2022/02/21 13:43:09;;;;;;;;;;;;;;;;;;5027077;28;20299;-56
2022/02/21 13:45:34;;;;;;;;;;;;;;;;;;5026890;28;19976;-54
2022/02/21 13:48:01;;;;;;;;;;;;;;;;;;5028629;28;19925;-54
2022/02/21 13:50:26;;;;;;;;;;;;;;;;;;5029502;28;21722;-53
2022/02/21 13:52:52;;;;;;;;;;;;;;;;;;5027417;28;19932;-54
2022/02/21 13:55:17;;;;;;;;;;;;;;;;;;5026614;28;19925;-54
2022/02/21 13:57:43;;;;;;;;;;;;;;;;;;5027318;28;20420;-53
2022/02/21 14:00:08;;;;;;;;;;;;;;;;;;5026833;28;20282;-53
2022/02/21 14:02:34;;;;;;;;;;;;;;;;;;5025521;28;20327;-52
2022/02/21 14:05:00;;;;;;;;;;;;;;;;;;5027340;28;20026;-56
2022/02/21 14:07:25;;;;;;;;;;;;;;;;;;5028423;28;20406;-56
2022/02/21 14:09:51;;;;;;;;;;;;;;;;;;5029021;28;19975;-56
2022/02/21 14:12:16;;;;;;;;;;;;;;;;;;5030019;28;19921;-56
2022/02/21 14:14:42;;;;;;;;;;;;;;;;;;5028637;28;19921;-55
2022/02/21 14:17:08;;;;;;;;;;;;;;;;;;5028657;28;19925;-53
2022/02/21 14:19:33;;;;;;;;;;;;;;;;;;5029149;28;20353;-55
2022/02/21 14:22:00;;;;;;;;;;;;;;;;;;5029534;28;19925;-56
2022/02/21 14:24:25;;;;;;;;;;;;;;;;;;5027349;28;19933;-56
2022/02/21 14:26:51;;;;;;;;;;;;;;;;;;5028045;28;20040;-56
2022/02/21 14:29:16;;;;;;;;;;;;;;;;;;5029566;28;20027;-56
2022/02/21 14:31:42;;;;;;;;;;;;;;;;;;5029335;28;20779;-53
2022/02/21 14:34:07;;;;;;;;;;;;;;;;;;5028398;28;20385;-56
2022/02/21 14:36:35;;;;;;;;;;;;;;;;;;5028052;28;20015;-53
2022/02/21 14:39:00;;;;;;;;;;;;;;;;;;5028202;28;19921;-56
2022/02/21 14:41:26;;;;;;;;;;;;;;;;;;5026832;28;19921;-53
2022/02/21 14:43:51;;;;;;;;;;;;;;;;;;5027223;28;19932;-56
2022/02/21 14:46:16;;;;;;;;;;;;;;;;;;5028881;28;19928;-53
2022/02/21 14:48:42;;;;;;;;;;;;;;;;;;5042897;28;19933;-53
2022/02/21 14:51:07;;;;;;;;;;;;;;;;;;5028814;28;20056;-55
2022/02/21 14:53:33;;;;;;;;;;;;;;;;;;5027579;28;19948;-55
2022/02/21 14:55:58;;;;;;;;;;;;;;;;;;5027400;28;19927;-56
2022/02/21 14:58:24;;;;;;;;;;;;;;;;;;5026706;28;19925;-56
2022/02/21 15:00:49;;;;;;;;;;;;;;;;;;5027992;28;19968;-55
2022/02/21 15:03:15;;;;;;;;;;;;;;;;;;5027231;28;19979;-54
2022/02/21 15:05:40;;;;;;;;;;;;;;;;;;5028261;28;19929;-55
2022/02/21 15:08:06;;;;;;;;;;;;;;;;;;5027151;28;20339;-53
2022/02/21 15:10:31;;;;;;;;;;;;;;;;;;5027615;28;20542;-54
2022/02/21 15:12:57;;;;;;;;;;;;;;;;;;5025660;28;20398;-56
2022/02/21 15:15:22;;;;;;;;;;;;;;;;;;5027310;28;19925;-53
2022/02/21 15:17:48;;;;;;;;;;;;;;;;;;5026053;28;19921;-54
2022/02/21 15:20:15;;;;;;;;;;;;;;;;;;5027972;28;19925;-55
2022/02/21 15:22:40;;;;;;;;;;;;;;;;;;5026546;28;19924;-56
2022/02/21 15:25:06;;;;;;;;;;;;;;;;;;5027573;28;19929;-54
2022/02/21 15:27:31;;;;;;;;;;;;;;;;;;5027340;28;19925;-53
2022/02/21 15:29:57;;;;;;;;;;;;;;;;;;5027823;28;19921;-55
2022/02/21 15:32:22;;;;;;;;;;;;;;;;;;5026585;28;19925;-52
2022/02/21 15:34:48;;;;;;;;;;;;;;;;;;5027957;28;20024;-52
2022/02/21 15:37:13;;;;;;;;;;;;;;;;;;5026604;28;19948;-56
2022/02/21 15:39:39;;;;;;;;;;;;;;;;;;5026277;28;20398;-53
2022/02/21 15:42:04;;;;;;;;;;;;;;;;;;5027259;28;19992;-55
2022/02/21 15:44:30;;;;;;;;;;;;;;;;;;5026119;28;19943;-53
2022/02/21 15:46:59;;;;;;;;;;;;;;;;;;5027004;28;19957;-53
2022/02/21 15:49:25;;;;;;;;;;;;;;;;;;5026684;28;20399;-55
2022/02/21 15:51:50;;;;;;;;;;;;;;;;;;5027925;28;19928;-55
2022/02/21 15:54:16;;;;;;;;;;;;;;;;;;5026198;28;20036;-53
2022/02/21 15:56:41;;;;;;;;;;;;;;;;;;5025832;28;19928;-55
2022/02/21 15:59:07;;;;;;;;;;;;;;;;;;5028398;28;19964;-55
2022/02/21 16:01:32;;;;;;;;;;;;;;;;;;5028266;28;19956;-54
2022/02/21 16:03:57;;;;;;;;;;;;;;;;;;5028122;28;20569;-55
2022/02/21 16:06:23;;;;;;;;;;;;;;;;;;5028136;28;20011;-56
2022/02/21 16:08:48;;;;;;;;;;;;;;;;;;5039549;28;20305;-56
2022/02/21 16:11:14;;;;;;;;;;;;;;;;;;5034201;28;20382;-56
2022/02/21 16:13:40;;;;;;;;;;;;;;;;;;5025210;28;20050;-50
2022/02/21 16:16:06;;;;;;;;;;;;;;;;;;5027125;28;19930;-55
2022/02/21 16:18:31;;;;;;;;;;;;;;;;;;5024288;28;20434;-54
2022/02/21 16:20:57;;;;;;;;;;;;;;;;;;5024542;28;19927;-52
2022/02/21 16:23:24;;;;;;;;;;;;;;;;;;5023452;28;20079;-54
2022/02/21 16:25:50;;;;;;;;;;;;;;;;;;5025526;28;19925;-54
2022/02/21 16:28:15;;;;;;;;;;;;;;;;;;5027691;28;19928;-54
2022/02/21 16:30:41;;;;;;;;;;;;;;;;;;5027819;28;19925;-54
2022/02/21 16:33:06;;;;;;;;;;;;;;;;;;5026764;28;19921;-54